sensor_id;sensor_type;location;lat;lon;timestamp;temperature;humidity
5578;DHT22;2811;51.900;10.734;2024-02-15T00:00:23;12.70;99.90
5578;DHT22;2811;51.900;10.734;2024-02-15T00:02:53;12.60;99.90
5578;DHT22;2811;51.900;10.734;2024-02-15T00:05:20;12.60;99.90
5578;DHT22;2811;51.900;10.734;2024-02-15T00:07:47;12.60;99.90
5578;DHT22;2811;51.900;10.734;2024-02-15T00:10:14;12.50;99.90
5578;DHT22;2811;51.900;10.734;2024-02-15T00:12:41;12.50;99.90
5578;DHT22;2811;51.900;10.734;2024-02-15T00:15:08;12.50;99.90
5578;DHT22;2811;51.900;10.734;2024-02-15T00:17:36;12.50;99.90
5578;DHT22;2811;51.900;10.734;2024-02-15T00:20:05;12.50;99.90
5578;DHT22;2811;51.900;10.734;2024-02-15T00:22:34;12.50;99.90
5578;DHT22;2811;51.900;10.734;2024-02-15T00:25:01;12.30;99.90
5578;DHT22;2811;51.900;10.734;2024-02-15T00:27:28;12.20;99.90
5578;DHT22;2811;51.900;10.734;2024-02-15T00:29:54;12.30;99.90
5578;DHT22;2811;51.900;10.734;2024-02-15T00:32:21;12.20;99.90
5578;DHT22;2811;51.900;10.734;2024-02-15T00:34:47;12.20;99.90
5578;DHT22;2811;51.900;10.734;2024-02-15T00:37:15;12.30;99.90
5578;DHT22;2811;51.900;10.734;2024-02-15T00:39:42;12.30;99.90
5578;DHT22;2811;51.900;10.734;2024-02-15T00:42:09;12.20;99.90
5578;DHT22;2811;51.900;10.734;2024-02-15T00:44:36;12.30;99.90
5578;DHT22;2811;51.900;10.734;2024-02-15T00:47:02;12.30;99.90
5578;DHT22;2811;51.900;10.734;2024-02-15T00:49:30;12.30;99.90
5578;DHT22;2811;51.900;10.734;2024-02-15T00:51:57;12.30;99.90
5578;DHT22;2811;51.900;10.734;2024-02-15T00:54:25;12.30;99.90
5578;DHT22;2811;51.900;10.734;2024-02-15T00:56:52;12.30;99.90
5578;DHT22;2811;51.900;10.734;2024-02-15T00:59:18;12.30;99.90
5578;DHT22;2811;51.900;10.734;2024-02-15T01:01:45;12.40;99.90
5578;DHT22;2811;51.900;10.734;2024-02-15T01:04:13;12.40;99.90
5578;DHT22;2811;51.900;10.734;2024-02-15T01:06:40;12.40;99.90
5578;DHT22;2811;51.900;10.734;2024-02-15T01:09:07;12.50;99.90
5578;DHT22;2811;51.900;10.734;2024-02-15T01:11:36;12.50;99.90
5578;DHT22;2811;51.900;10.734;2024-02-15T01:14:03;12.50;99.90
5578;DHT22;2811;51.900;10.734;2024-02-15T01:16:29;12.50;99.90
5578;DHT22;2811;51.900;10.734;2024-02-15T01:18:56;12.50;99.90
5578;DHT22;2811;51.900;10.734;2024-02-15T01:21:22;12.50;99.90
5578;DHT22;2811;51.900;10.734;2024-02-15T01:23:49;12.60;99.90
5578;DHT22;2811;51.900;10.734;2024-02-15T01:26:19;12.60;99.90
5578;DHT22;2811;51.900;10.734;2024-02-15T01:28:47;12.60;99.90
5578;DHT22;2811;51.900;10.734;2024-02-15T01:31:13;12.50;99.90
5578;DHT22;2811;51.900;10.734;2024-02-15T01:33:43;12.50;99.90
5578;DHT22;2811;51.900;10.734;2024-02-15T01:36:13;12.50;99.90
5578;DHT22;2811;51.900;10.734;2024-02-15T01:38:41;12.50;99.90
5578;DHT22;2811;51.900;10.734;2024-02-15T01:41:08;12.60;99.90
5578;DHT22;2811;51.900;10.734;2024-02-15T01:43:35;12.50;99.90
5578;DHT22;2811;51.900;10.734;2024-02-15T01:46:08;12.60;99.90
5578;DHT22;2811;51.900;10.734;2024-02-15T01:48:36;12.60;99.90
5578;DHT22;2811;51.900;10.734;2024-02-15T01:51:03;12.60;99.90
5578;DHT22;2811;51.900;10.734;2024-02-15T01:53:32;12.60;99.90
5578;DHT22;2811;51.900;10.734;2024-02-15T01:55:59;12.60;99.90
5578;DHT22;2811;51.900;10.734;2024-02-15T01:58:27;12.70;99.90
5578;DHT22;2811;51.900;10.734;2024-02-15T02:00:55;12.70;99.90
5578;DHT22;2811;51.900;10.734;2024-02-15T02:03:24;12.60;99.90
5578;DHT22;2811;51.900;10.734;2024-02-15T02:05:50;12.60;99.90
5578;DHT22;2811;51.900;10.734;2024-02-15T02:08:17;12.60;99.90
5578;DHT22;2811;51.900;10.734;2024-02-15T02:10:44;12.60;99.90
5578;DHT22;2811;51.900;10.734;2024-02-15T02:13:11;12.80;99.90
5578;DHT22;2811;51.900;10.734;2024-02-15T02:15:38;12.60;99.90
5578;DHT22;2811;51.900;10.734;2024-02-15T02:18:05;12.60;99.90
5578;DHT22;2811;51.900;10.734;2024-02-15T02:20:35;12.60;99.90
5578;DHT22;2811;51.900;10.734;2024-02-15T02:23:04;12.60;99.90
5578;DHT22;2811;51.900;10.734;2024-02-15T02:25:34;12.60;99.90
5578;DHT22;2811;51.900;10.734;2024-02-15T02:28:01;12.60;99.90
5578;DHT22;2811;51.900;10.734;2024-02-15T02:30:28;12.60;99.90
5578;DHT22;2811;51.900;10.734;2024-02-15T02:32:55;12.60;99.90
5578;DHT22;2811;51.900;10.734;2024-02-15T02:35:22;12.50;99.90
5578;DHT22;2811;51.900;10.734;2024-02-15T02:37:49;12.50;99.90
5578;DHT22;2811;51.900;10.734;2024-02-15T02:40:15;12.50;99.90
5578;DHT22;2811;51.900;10.734;2024-02-15T02:42:53;12.50;99.90
5578;DHT22;2811;51.900;10.734;2024-02-15T02:45:22;12.50;99.90
5578;DHT22;2811;51.900;10.734;2024-02-15T02:47:48;12.50;99.90
5578;DHT22;2811;51.900;10.734;2024-02-15T02:50:15;12.60;99.90
5578;DHT22;2811;51.900;10.734;2024-02-15T02:52:42;12.50;99.90
5578;DHT22;2811;51.900;10.734;2024-02-15T02:55:08;12.40;99.90
5578;DHT22;2811;51.900;10.734;2024-02-15T02:57:35;12.40;99.90
5578;DHT22;2811;51.900;10.734;2024-02-15T03:00:06;12.40;99.90
5578;DHT22;2811;51.900;10.734;2024-02-15T03:02:36;12.50;99.90
5578;DHT22;2811;51.900;10.734;2024-02-15T03:05:03;12.20;99.90
5578;DHT22;2811;51.900;10.734;2024-02-15T03:07:32;12.50;99.90
5578;DHT22;2811;51.900;10.734;2024-02-15T03:09:59;12.60;99.90
5578;DHT22;2811;51.900;10.734;2024-02-15T03:15:49;12.60;99.90
5578;DHT22;2811;51.900;10.734;2024-02-15T03:18:16;12.60;99.90
5578;DHT22;2811;51.900;10.734;2024-02-15T03:20:43;12.60;99.90
5578;DHT22;2811;51.900;10.734;2024-02-15T03:23:10;12.60;99.90
5578;DHT22;2811;51.900;10.734;2024-02-15T03:25:36;12.60;99.90
5578;DHT22;2811;51.900;10.734;2024-02-15T03:28:03;12.60;99.90
5578;DHT22;2811;51.900;10.734;2024-02-15T03:30:31;12.50;99.90
5578;DHT22;2811;51.900;10.734;2024-02-15T03:33:00;12.50;99.90
5578;DHT22;2811;51.900;10.734;2024-02-15T03:35:28;12.60;99.90
5578;DHT22;2811;51.900;10.734;2024-02-15T03:37:57;12.60;99.90
5578;DHT22;2811;51.900;10.734;2024-02-15T03:40:23;12.60;99.90
5578;DHT22;2811;51.900;10.734;2024-02-15T03:42:52;12.60;99.90
5578;DHT22;2811;51.900;10.734;2024-02-15T03:45:19;12.60;99.90
5578;DHT22;2811;51.900;10.734;2024-02-15T03:47:46;12.80;99.90
5578;DHT22;2811;51.900;10.734;2024-02-15T03:50:14;12.80;99.90
5578;DHT22;2811;51.900;10.734;2024-02-15T03:52:41;12.70;99.90
5578;DHT22;2811;51.900;10.734;2024-02-15T03:55:07;12.60;99.90
5578;DHT22;2811;51.900;10.734;2024-02-15T03:57:35;12.50;99.90
5578;DHT22;2811;51.900;10.734;2024-02-15T04:00:05;12.50;99.90
5578;DHT22;2811;51.900;10.734;2024-02-15T04:02:33;12.50;99.90
5578;DHT22;2811;51.900;10.734;2024-02-15T04:05:01;12.60;99.90
5578;DHT22;2811;51.900;10.734;2024-02-15T04:07:31;12.60;99.90
5578;DHT22;2811;51.900;10.734;2024-02-15T04:09:58;12.60;99.90
5578;DHT22;2811;51.900;10.734;2024-02-15T04:12:26;12.60;99.90
5578;DHT22;2811;51.900;10.734;2024-02-15T04:14:53;12.60;99.90
5578;DHT22;2811;51.900;10.734;2024-02-15T04:17:21;12.60;99.90
5578;DHT22;2811;51.900;10.734;2024-02-15T04:19:48;12.50;99.90
5578;DHT22;2811;51.900;10.734;2024-02-15T04:22:16;12.50;99.90
5578;DHT22;2811;51.900;10.734;2024-02-15T04:24:44;12.50;99.90
5578;DHT22;2811;51.900;10.734;2024-02-15T04:27:11;12.60;99.90
5578;DHT22;2811;51.900;10.734;2024-02-15T04:29:38;12.60;99.90
5578;DHT22;2811;51.900;10.734;2024-02-15T04:32:06;12.50;99.90
5578;DHT22;2811;51.900;10.734;2024-02-15T04:34:35;12.60;99.90
5578;DHT22;2811;51.900;10.734;2024-02-15T04:37:03;12.50;99.90
5578;DHT22;2811;51.900;10.734;2024-02-15T04:39:32;12.60;99.90
5578;DHT22;2811;51.900;10.734;2024-02-15T04:41:59;12.50;99.90
5578;DHT22;2811;51.900;10.734;2024-02-15T04:44:26;12.50;99.90
5578;DHT22;2811;51.900;10.734;2024-02-15T04:46:53;12.50;99.90
5578;DHT22;2811;51.900;10.734;2024-02-15T04:49:20;12.60;99.90
5578;DHT22;2811;51.900;10.734;2024-02-15T04:51:46;12.50;99.90
5578;DHT22;2811;51.900;10.734;2024-02-15T04:54:14;12.50;99.90
5578;DHT22;2811;51.900;10.734;2024-02-15T04:56:41;12.60;99.90
5578;DHT22;2811;51.900;10.734;2024-02-15T04:59:10;12.70;99.90
5578;DHT22;2811;51.900;10.734;2024-02-15T05:01:40;12.60;99.90
5578;DHT22;2811;51.900;10.734;2024-02-15T05:04:07;12.60;99.90
5578;DHT22;2811;51.900;10.734;2024-02-15T05:06:35;12.60;99.90
5578;DHT22;2811;51.900;10.734;2024-02-15T05:09:02;12.50;99.90
5578;DHT22;2811;51.900;10.734;2024-02-15T05:11:32;12.60;99.90
5578;DHT22;2811;51.900;10.734;2024-02-15T05:14:00;12.60;99.90
5578;DHT22;2811;51.900;10.734;2024-02-15T05:16:28;12.60;99.90
5578;DHT22;2811;51.900;10.734;2024-02-15T05:18:56;12.60;99.90
5578;DHT22;2811;51.900;10.734;2024-02-15T05:21:23;12.70;99.90
5578;DHT22;2811;51.900;10.734;2024-02-15T05:23:49;12.60;99.90
5578;DHT22;2811;51.900;10.734;2024-02-15T05:26:18;12.60;99.90
5578;DHT22;2811;51.900;10.734;2024-02-15T05:28:48;12.50;99.90
5578;DHT22;2811;51.900;10.734;2024-02-15T05:31:16;12.50;99.90
5578;DHT22;2811;51.900;10.734;2024-02-15T05:33:44;12.50;99.90
5578;DHT22;2811;51.900;10.734;2024-02-15T05:36:13;12.60;99.90
5578;DHT22;2811;51.900;10.734;2024-02-15T05:38:40;12.50;99.90
5578;DHT22;2811;51.900;10.734;2024-02-15T05:41:07;12.50;99.90
5578;DHT22;2811;51.900;10.734;2024-02-15T05:43:34;12.50;99.90
5578;DHT22;2811;51.900;10.734;2024-02-15T05:46:02;12.50;99.90
5578;DHT22;2811;51.900;10.734;2024-02-15T05:48:28;12.50;99.90
5578;DHT22;2811;51.900;10.734;2024-02-15T05:50:56;12.60;99.90
5578;DHT22;2811;51.900;10.734;2024-02-15T05:53:24;12.60;99.90
5578;DHT22;2811;51.900;10.734;2024-02-15T05:55:51;12.60;99.90
5578;DHT22;2811;51.900;10.734;2024-02-15T05:58:18;12.70;99.90
5578;DHT22;2811;51.900;10.734;2024-02-15T06:00:44;12.70;99.90
5578;DHT22;2811;51.900;10.734;2024-02-15T06:03:15;12.60;99.90
5578;DHT22;2811;51.900;10.734;2024-02-15T06:05:41;12.70;99.90
5578;DHT22;2811;51.900;10.734;2024-02-15T06:08:10;12.60;99.90
5578;DHT22;2811;51.900;10.734;2024-02-15T06:10:37;12.60;99.90
5578;DHT22;2811;51.900;10.734;2024-02-15T06:13:04;12.60;99.90
5578;DHT22;2811;51.900;10.734;2024-02-15T06:15:31;12.60;99.90
5578;DHT22;2811;51.900;10.734;2024-02-15T06:17:57;12.60;99.90
5578;DHT22;2811;51.900;10.734;2024-02-15T06:20:24;12.60;99.90
5578;DHT22;2811;51.900;10.734;2024-02-15T06:22:54;12.70;99.90
5578;DHT22;2811;51.900;10.734;2024-02-15T06:25:22;13.10;99.90
5578;DHT22;2811;51.900;10.734;2024-02-15T06:27:49;12.90;99.90
5578;DHT22;2811;51.900;10.734;2024-02-15T06:30:19;12.90;99.90
5578;DHT22;2811;51.900;10.734;2024-02-15T06:33:03;13.00;99.90
5578;DHT22;2811;51.900;10.734;2024-02-15T06:36:05;12.90;99.90
5578;DHT22;2811;51.900;10.734;2024-02-15T06:38:49;12.90;99.90
5578;DHT22;2811;51.900;10.734;2024-02-15T06:41:34;12.90;99.90
5578;DHT22;2811;51.900;10.734;2024-02-15T06:44:01;12.90;99.90
5578;DHT22;2811;51.900;10.734;2024-02-15T06:46:27;13.00;99.90
5578;DHT22;2811;51.900;10.734;2024-02-15T06:48:54;13.00;99.90
5578;DHT22;2811;51.900;10.734;2024-02-15T06:51:20;13.10;99.90
5578;DHT22;2811;51.900;10.734;2024-02-15T06:53:47;13.00;99.90
5578;DHT22;2811;51.900;10.734;2024-02-15T06:56:15;12.90;99.90
5578;DHT22;2811;51.900;10.734;2024-02-15T06:58:42;12.90;99.90
5578;DHT22;2811;51.900;10.734;2024-02-15T07:01:09;13.00;99.90
5578;DHT22;2811;51.900;10.734;2024-02-15T07:03:38;13.00;99.90
5578;DHT22;2811;51.900;10.734;2024-02-15T07:06:05;13.10;99.90
5578;DHT22;2811;51.900;10.734;2024-02-15T07:08:32;13.10;99.90
5578;DHT22;2811;51.900;10.734;2024-02-15T07:10:58;13.10;99.90
5578;DHT22;2811;51.900;10.734;2024-02-15T07:13:25;13.10;99.90
5578;DHT22;2811;51.900;10.734;2024-02-15T07:15:53;13.20;99.90
5578;DHT22;2811;51.900;10.734;2024-02-15T07:18:20;13.10;99.90
5578;DHT22;2811;51.900;10.734;2024-02-15T07:20:47;13.10;99.90
5578;DHT22;2811;51.900;10.734;2024-02-15T07:23:14;13.10;99.90
5578;DHT22;2811;51.900;10.734;2024-02-15T07:25:41;13.10;99.90
5578;DHT22;2811;51.900;10.734;2024-02-15T07:28:07;13.10;99.90
5578;DHT22;2811;51.900;10.734;2024-02-15T07:30:35;13.10;99.90
5578;DHT22;2811;51.900;10.734;2024-02-15T07:33:03;13.10;99.90
5578;DHT22;2811;51.900;10.734;2024-02-15T07:35:32;13.20;99.90
5578;DHT22;2811;51.900;10.734;2024-02-15T07:37:58;13.60;99.90
5578;DHT22;2811;51.900;10.734;2024-02-15T07:40:27;13.40;99.90
5578;DHT22;2811;51.900;10.734;2024-02-15T07:42:56;13.50;99.90
5578;DHT22;2811;51.900;10.734;2024-02-15T07:45:22;13.50;99.90
5578;DHT22;2811;51.900;10.734;2024-02-15T07:47:49;13.50;99.90
5578;DHT22;2811;51.900;10.734;2024-02-15T07:50:17;13.50;99.90
5578;DHT22;2811;51.900;10.734;2024-02-15T07:52:46;13.60;99.90
5578;DHT22;2811;51.900;10.734;2024-02-15T07:55:13;13.70;99.90
5578;DHT22;2811;51.900;10.734;2024-02-15T07:57:40;13.60;99.90
5578;DHT22;2811;51.900;10.734;2024-02-15T08:00:07;13.50;99.90
5578;DHT22;2811;51.900;10.734;2024-02-15T08:02:36;13.60;99.90
5578;DHT22;2811;51.900;10.734;2024-02-15T08:05:06;13.70;99.90
5578;DHT22;2811;51.900;10.734;2024-02-15T08:07:37;13.60;99.90
5578;DHT22;2811;51.900;10.734;2024-02-15T08:10:05;13.80;99.90
5578;DHT22;2811;51.900;10.734;2024-02-15T08:12:33;13.90;99.90
5578;DHT22;2811;51.900;10.734;2024-02-15T08:15:00;13.90;99.90
5578;DHT22;2811;51.900;10.734;2024-02-15T08:17:26;13.90;99.90
5578;DHT22;2811;51.900;10.734;2024-02-15T08:19:54;13.90;99.90
5578;DHT22;2811;51.900;10.734;2024-02-15T08:22:21;13.90;99.90
5578;DHT22;2811;51.900;10.734;2024-02-15T08:24:52;13.90;99.90
5578;DHT22;2811;51.900;10.734;2024-02-15T08:27:18;13.70;99.90
5578;DHT22;2811;51.900;10.734;2024-02-15T08:29:45;13.70;99.90
5578;DHT22;2811;51.900;10.734;2024-02-15T08:32:12;13.70;99.90
5578;DHT22;2811;51.900;10.734;2024-02-15T08:34:39;13.70;99.90
5578;DHT22;2811;51.900;10.734;2024-02-15T08:37:06;13.90;99.90
5578;DHT22;2811;51.900;10.734;2024-02-15T08:39:33;13.90;99.90
5578;DHT22;2811;51.900;10.734;2024-02-15T08:42:01;14.10;99.90
5578;DHT22;2811;51.900;10.734;2024-02-15T08:44:29;14.20;99.90
5578;DHT22;2811;51.900;10.734;2024-02-15T08:46:56;14.30;99.90
5578;DHT22;2811;51.900;10.734;2024-02-15T08:49:22;14.30;99.90
5578;DHT22;2811;51.900;10.734;2024-02-15T08:51:49;14.30;99.90
5578;DHT22;2811;51.900;10.734;2024-02-15T08:54:16;14.30;99.90
5578;DHT22;2811;51.900;10.734;2024-02-15T08:56:42;14.20;99.90
5578;DHT22;2811;51.900;10.734;2024-02-15T08:59:10;14.30;99.90
5578;DHT22;2811;51.900;10.734;2024-02-15T09:01:37;14.50;99.90
5578;DHT22;2811;51.900;10.734;2024-02-15T09:04:05;14.60;99.90
5578;DHT22;2811;51.900;10.734;2024-02-15T09:06:31;14.70;99.90
5578;DHT22;2811;51.900;10.734;2024-02-15T09:08:58;14.80;99.90
5578;DHT22;2811;51.900;10.734;2024-02-15T09:11:28;14.80;99.90
5578;DHT22;2811;51.900;10.734;2024-02-15T09:13:55;14.80;99.90
5578;DHT22;2811;51.900;10.734;2024-02-15T09:16:23;14.80;99.90
5578;DHT22;2811;51.900;10.734;2024-02-15T09:18:49;14.90;99.90
5578;DHT22;2811;51.900;10.734;2024-02-15T09:21:16;14.80;99.90
5578;DHT22;2811;51.900;10.734;2024-02-15T09:23:42;14.80;99.90
5578;DHT22;2811;51.900;10.734;2024-02-15T09:26:09;14.70;99.90
5578;DHT22;2811;51.900;10.734;2024-02-15T09:28:36;14.80;99.90
5578;DHT22;2811;51.900;10.734;2024-02-15T09:31:02;14.80;99.90
5578;DHT22;2811;51.900;10.734;2024-02-15T09:33:30;14.80;99.90
5578;DHT22;2811;51.900;10.734;2024-02-15T09:35:57;15.00;99.90
5578;DHT22;2811;51.900;10.734;2024-02-15T09:38:24;15.10;99.90
5578;DHT22;2811;51.900;10.734;2024-02-15T09:40:50;15.20;99.90
5578;DHT22;2811;51.900;10.734;2024-02-15T09:43:17;15.20;99.90
5578;DHT22;2811;51.900;10.734;2024-02-15T09:45:44;15.10;99.90
5578;DHT22;2811;51.900;10.734;2024-02-15T09:48:11;15.20;99.90
5578;DHT22;2811;51.900;10.734;2024-02-15T09:50:40;15.10;99.90
5578;DHT22;2811;51.900;10.734;2024-02-15T09:53:08;15.30;99.90
5578;DHT22;2811;51.900;10.734;2024-02-15T09:55:36;15.50;99.90
5578;DHT22;2811;51.900;10.734;2024-02-15T09:58:03;15.50;99.90
5578;DHT22;2811;51.900;10.734;2024-02-15T10:00:31;15.60;99.90
5578;DHT22;2811;51.900;10.734;2024-02-15T10:03:00;15.60;99.90
5578;DHT22;2811;51.900;10.734;2024-02-15T10:05:28;15.60;99.90
5578;DHT22;2811;51.900;10.734;2024-02-15T10:07:57;15.50;99.90
5578;DHT22;2811;51.900;10.734;2024-02-15T10:10:27;15.60;99.90
5578;DHT22;2811;51.900;10.734;2024-02-15T10:12:54;15.40;99.90
5578;DHT22;2811;51.900;10.734;2024-02-15T10:15:28;15.40;99.90
5578;DHT22;2811;51.900;10.734;2024-02-15T10:17:56;15.40;99.90
5578;DHT22;2811;51.900;10.734;2024-02-15T10:20:24;15.30;99.90
5578;DHT22;2811;51.900;10.734;2024-02-15T10:22:52;15.50;99.90
5578;DHT22;2811;51.900;10.734;2024-02-15T10:25:21;15.50;99.90
5578;DHT22;2811;51.900;10.734;2024-02-15T10:27:49;15.50;99.90
5578;DHT22;2811;51.900;10.734;2024-02-15T10:30:17;15.60;99.90
5578;DHT22;2811;51.900;10.734;2024-02-15T10:32:44;15.60;99.90
5578;DHT22;2811;51.900;10.734;2024-02-15T10:35:10;15.60;99.90
5578;DHT22;2811;51.900;10.734;2024-02-15T10:37:41;15.70;99.90
5578;DHT22;2811;51.900;10.734;2024-02-15T10:40:08;15.70;99.90
5578;DHT22;2811;51.900;10.734;2024-02-15T10:42:36;15.80;99.90
5578;DHT22;2811;51.900;10.734;2024-02-15T10:45:03;15.80;99.90
5578;DHT22;2811;51.900;10.734;2024-02-15T10:47:30;15.80;99.90
5578;DHT22;2811;51.900;10.734;2024-02-15T10:49:57;15.80;99.90
5578;DHT22;2811;51.900;10.734;2024-02-15T10:52:31;15.70;99.90
5578;DHT22;2811;51.900;10.734;2024-02-15T10:55:02;15.80;99.90
5578;DHT22;2811;51.900;10.734;2024-02-15T10:57:31;15.80;99.90
5578;DHT22;2811;51.900;10.734;2024-02-15T11:00:00;15.70;99.90
5578;DHT22;2811;51.900;10.734;2024-02-15T11:02:37;15.80;99.90
5578;DHT22;2811;51.900;10.734;2024-02-15T11:05:07;15.70;99.90
5578;DHT22;2811;51.900;10.734;2024-02-15T11:07:36;15.70;99.90
5578;DHT22;2811;51.900;10.734;2024-02-15T11:10:04;15.80;99.90
5578;DHT22;2811;51.900;10.734;2024-02-15T11:12:36;15.70;99.90
5578;DHT22;2811;51.900;10.734;2024-02-15T11:15:05;15.80;99.90
5578;DHT22;2811;51.900;10.734;2024-02-15T11:17:46;15.80;99.90
5578;DHT22;2811;51.900;10.734;2024-02-15T11:20:45;15.80;99.90
5578;DHT22;2811;51.900;10.734;2024-02-15T11:23:23;15.40;99.90
5578;DHT22;2811;51.900;10.734;2024-02-15T11:25:50;15.60;99.90
5578;DHT22;2811;51.900;10.734;2024-02-15T11:28:37;15.80;99.90
5578;DHT22;2811;51.900;10.734;2024-02-15T11:31:09;15.90;99.90
5578;DHT22;2811;51.900;10.734;2024-02-15T11:33:37;16.10;99.90
5578;DHT22;2811;51.900;10.734;2024-02-15T11:36:05;16.10;99.90
5578;DHT22;2811;51.900;10.734;2024-02-15T11:38:33;16.10;99.90
5578;DHT22;2811;51.900;10.734;2024-02-15T11:41:04;16.00;99.90
5578;DHT22;2811;51.900;10.734;2024-02-15T11:43:48;15.90;99.90
5578;DHT22;2811;51.900;10.734;2024-02-15T11:46:24;15.90;99.90
5578;DHT22;2811;51.900;10.734;2024-02-15T11:48:53;16.00;99.90
5578;DHT22;2811;51.900;10.734;2024-02-15T11:51:27;16.00;99.90
5578;DHT22;2811;51.900;10.734;2024-02-15T11:54:04;16.00;99.90
5578;DHT22;2811;51.900;10.734;2024-02-15T11:56:53;15.80;99.90
5578;DHT22;2811;51.900;10.734;2024-02-15T11:59:30;15.80;99.90
5578;DHT22;2811;51.900;10.734;2024-02-15T12:01:59;15.90;99.90
5578;DHT22;2811;51.900;10.734;2024-02-15T12:04:43;15.80;99.90
5578;DHT22;2811;51.900;10.734;2024-02-15T12:07:28;15.90;99.90
5578;DHT22;2811;51.900;10.734;2024-02-15T12:10:16;15.90;99.90
5578;DHT22;2811;51.900;10.734;2024-02-15T12:13:00;16.10;99.90
5578;DHT22;2811;51.900;10.734;2024-02-15T12:15:56;16.20;99.90
5578;DHT22;2811;51.900;10.734;2024-02-15T12:18:42;16.30;99.90
5578;DHT22;2811;51.900;10.734;2024-02-15T12:21:12;16.40;99.90
5578;DHT22;2811;51.900;10.734;2024-02-15T12:23:40;16.50;99.90
5578;DHT22;2811;51.900;10.734;2024-02-15T12:26:07;16.50;99.90
5578;DHT22;2811;51.900;10.734;2024-02-15T12:28:35;16.60;99.90
5578;DHT22;2811;51.900;10.734;2024-02-15T12:31:02;16.70;99.90
5578;DHT22;2811;51.900;10.734;2024-02-15T12:33:32;16.50;99.90
5578;DHT22;2811;51.900;10.734;2024-02-15T12:36:05;16.40;99.90
5578;DHT22;2811;51.900;10.734;2024-02-15T12:38:32;16.10;99.90
5578;DHT22;2811;51.900;10.734;2024-02-15T12:41:00;15.80;99.90
5578;DHT22;2811;51.900;10.734;2024-02-15T12:43:27;15.60;99.90
5578;DHT22;2811;51.900;10.734;2024-02-15T12:45:54;15.60;99.90
5578;DHT22;2811;51.900;10.734;2024-02-15T12:48:22;15.60;99.90
5578;DHT22;2811;51.900;10.734;2024-02-15T12:50:49;15.70;99.90
5578;DHT22;2811;51.900;10.734;2024-02-15T12:53:22;15.70;99.90
5578;DHT22;2811;51.900;10.734;2024-02-15T12:55:55;15.60;99.90
5578;DHT22;2811;51.900;10.734;2024-02-15T12:58:22;15.60;99.90
5578;DHT22;2811;51.900;10.734;2024-02-15T13:00:50;15.80;99.90
5578;DHT22;2811;51.900;10.734;2024-02-15T13:03:16;15.80;99.90
5578;DHT22;2811;51.900;10.734;2024-02-15T13:05:43;15.70;99.90
5578;DHT22;2811;51.900;10.734;2024-02-15T13:08:10;15.60;99.90
5578;DHT22;2811;51.900;10.734;2024-02-15T13:10:40;15.60;99.90
5578;DHT22;2811;51.900;10.734;2024-02-15T13:13:06;15.60;99.90
5578;DHT22;2811;51.900;10.734;2024-02-15T13:15:34;15.40;99.90
5578;DHT22;2811;51.900;10.734;2024-02-15T13:18:03;15.40;99.90
5578;DHT22;2811;51.900;10.734;2024-02-15T13:20:29;15.30;99.90
5578;DHT22;2811;51.900;10.734;2024-02-15T13:22:58;15.30;99.90
5578;DHT22;2811;51.900;10.734;2024-02-15T13:25:27;15.40;99.90
5578;DHT22;2811;51.900;10.734;2024-02-15T13:27:55;15.20;99.90
5578;DHT22;2811;51.900;10.734;2024-02-15T13:30:22;15.00;99.90
5578;DHT22;2811;51.900;10.734;2024-02-15T13:32:53;15.00;99.90
5578;DHT22;2811;51.900;10.734;2024-02-15T13:35:20;14.90;99.90
5578;DHT22;2811;51.900;10.734;2024-02-15T13:37:49;15.00;99.90
5578;DHT22;2811;51.900;10.734;2024-02-15T13:40:18;14.80;99.90
5578;DHT22;2811;51.900;10.734;2024-02-15T13:42:47;14.70;99.90
5578;DHT22;2811;51.900;10.734;2024-02-15T13:45:19;14.60;99.90
5578;DHT22;2811;51.900;10.734;2024-02-15T13:47:48;14.60;99.90
5578;DHT22;2811;51.900;10.734;2024-02-15T13:50:14;14.70;99.90
5578;DHT22;2811;51.900;10.734;2024-02-15T13:52:41;14.70;99.90
5578;DHT22;2811;51.900;10.734;2024-02-15T13:55:10;14.80;99.90
5578;DHT22;2811;51.900;10.734;2024-02-15T13:57:38;14.90;99.90
5578;DHT22;2811;51.900;10.734;2024-02-15T14:00:06;15.00;99.90
5578;DHT22;2811;51.900;10.734;2024-02-15T14:02:40;14.90;99.90
5578;DHT22;2811;51.900;10.734;2024-02-15T14:05:07;15.20;99.90
5578;DHT22;2811;51.900;10.734;2024-02-15T14:07:34;15.20;99.90
5578;DHT22;2811;51.900;10.734;2024-02-15T14:10:02;15.00;99.90
5578;DHT22;2811;51.900;10.734;2024-02-15T14:12:28;15.00;99.90
5578;DHT22;2811;51.900;10.734;2024-02-15T14:14:55;15.20;99.90
5578;DHT22;2811;51.900;10.734;2024-02-15T14:17:22;15.10;99.90
5578;DHT22;2811;51.900;10.734;2024-02-15T14:19:50;14.90;99.90
5578;DHT22;2811;51.900;10.734;2024-02-15T14:22:17;14.90;99.90
5578;DHT22;2811;51.900;10.734;2024-02-15T14:24:43;15.00;99.90
5578;DHT22;2811;51.900;10.734;2024-02-15T14:27:10;15.00;99.90
5578;DHT22;2811;51.900;10.734;2024-02-15T14:29:38;15.00;99.90
5578;DHT22;2811;51.900;10.734;2024-02-15T14:32:25;15.00;99.90
5578;DHT22;2811;51.900;10.734;2024-02-15T14:35:10;15.10;99.90
5578;DHT22;2811;51.900;10.734;2024-02-15T14:37:38;15.10;99.90
5578;DHT22;2811;51.900;10.734;2024-02-15T14:40:07;15.10;99.90
5578;DHT22;2811;51.900;10.734;2024-02-15T14:42:34;15.10;99.90
5578;DHT22;2811;51.900;10.734;2024-02-15T14:45:01;15.10;99.90
5578;DHT22;2811;51.900;10.734;2024-02-15T14:47:28;15.30;99.90
5578;DHT22;2811;51.900;10.734;2024-02-15T14:49:54;15.40;99.90
5578;DHT22;2811;51.900;10.734;2024-02-15T14:52:22;15.30;99.90
5578;DHT22;2811;51.900;10.734;2024-02-15T14:54:50;15.30;99.90
5578;DHT22;2811;51.900;10.734;2024-02-15T14:57:17;15.40;99.90
5578;DHT22;2811;51.900;10.734;2024-02-15T14:59:44;15.40;99.90
5578;DHT22;2811;51.900;10.734;2024-02-15T15:02:11;15.40;99.90
5578;DHT22;2811;51.900;10.734;2024-02-15T15:04:37;15.40;99.90
5578;DHT22;2811;51.900;10.734;2024-02-15T15:07:24;15.40;99.90
5578;DHT22;2811;51.900;10.734;2024-02-15T15:10:10;15.30;99.90
5578;DHT22;2811;51.900;10.734;2024-02-15T15:12:54;15.20;99.90
5578;DHT22;2811;51.900;10.734;2024-02-15T15:15:22;15.00;99.90
5578;DHT22;2811;51.900;10.734;2024-02-15T15:17:48;14.90;99.90
5578;DHT22;2811;51.900;10.734;2024-02-15T15:20:16;14.90;99.90
5578;DHT22;2811;51.900;10.734;2024-02-15T15:22:44;14.80;99.90
5578;DHT22;2811;51.900;10.734;2024-02-15T15:25:12;14.90;99.90
5578;DHT22;2811;51.900;10.734;2024-02-15T15:27:38;14.80;99.90
5578;DHT22;2811;51.900;10.734;2024-02-15T15:30:06;14.90;99.90
5578;DHT22;2811;51.900;10.734;2024-02-15T15:32:33;14.80;99.90
5578;DHT22;2811;51.900;10.734;2024-02-15T15:35:01;15.00;99.90
5578;DHT22;2811;51.900;10.734;2024-02-15T15:37:27;14.90;99.90
5578;DHT22;2811;51.900;10.734;2024-02-15T15:39:55;14.80;99.90
5578;DHT22;2811;51.900;10.734;2024-02-15T15:42:22;14.70;99.90
5578;DHT22;2811;51.900;10.734;2024-02-15T15:44:48;14.60;99.90
5578;DHT22;2811;51.900;10.734;2024-02-15T15:47:15;14.40;99.90
5578;DHT22;2811;51.900;10.734;2024-02-15T15:49:41;14.40;99.90
5578;DHT22;2811;51.900;10.734;2024-02-15T15:52:08;14.40;99.90
5578;DHT22;2811;51.900;10.734;2024-02-15T15:54:34;14.40;99.90
5578;DHT22;2811;51.900;10.734;2024-02-15T15:57:03;14.40;99.90